sensor_id;sensor_type;location;lat;lon;timestamp;P1;durP1;ratioP1;P2;durP2;ratioP2
36597;SDS011;22607;49.550;11.940;2024-02-28T00:01:09;17.98;;;9.68;;
36597;SDS011;22607;49.550;11.940;2024-02-28T00:03:39;15.38;;;8.90;;
36597;SDS011;22607;49.550;11.940;2024-02-28T00:06:06;21.65;;;11.00;;
36597;SDS011;22607;49.550;11.940;2024-02-28T00:08:39;18.35;;;10.30;;
36597;SDS011;22607;49.550;11.940;2024-02-28T00:11:08;15.55;;;8.52;;
36597;SDS011;22607;49.550;11.940;2024-02-28T00:13:35;18.25;;;9.68;;
36597;SDS011;22607;49.550;11.940;2024-02-28T00:16:02;18.58;;;9.73;;
36597;SDS011;22607;49.550;11.940;2024-02-28T00:18:29;16.55;;;9.48;;
36597;SDS011;22607;49.550;11.940;2024-02-28T00:20:57;16.33;;;9.20;;
36597;SDS011;22607;49.550;11.940;2024-02-28T00:23:25;15.80;;;8.57;;
36597;SDS011;22607;49.550;11.940;2024-02-28T00:25:52;19.58;;;10.93;;
36597;SDS011;22607;49.550;11.940;2024-02-28T00:28:22;15.43;;;8.52;;
36597;SDS011;22607;49.550;11.940;2024-02-28T00:30:51;19.23;;;9.98;;
36597;SDS011;22607;49.550;11.940;2024-02-28T00:33:18;18.48;;;11.02;;
36597;SDS011;22607;49.550;11.940;2024-02-28T00:35:47;19.27;;;9.60;;
36597;SDS011;22607;49.550;11.940;2024-02-28T00:38:14;18.33;;;9.50;;
36597;SDS011;22607;49.550;11.940;2024-02-28T00:40:44;19.35;;;9.57;;
36597;SDS011;22607;49.550;11.940;2024-02-28T00:43:13;18.85;;;10.73;;
36597;SDS011;22607;49.550;11.940;2024-02-28T00:45:39;20.20;;;10.57;;
36597;SDS011;22607;49.550;11.940;2024-02-28T00:48:09;18.33;;;9.90;;
36597;SDS011;22607;49.550;11.940;2024-02-28T00:50:36;20.27;;;10.70;;
36597;SDS011;22607;49.550;11.940;2024-02-28T00:53:03;18.60;;;9.63;;
36597;SDS011;22607;49.550;11.940;2024-02-28T00:55:30;17.33;;;9.77;;
36597;SDS011;22607;49.550;11.940;2024-02-28T00:57:58;16.02;;;8.93;;
36597;SDS011;22607;49.550;11.940;2024-02-28T01:00:25;19.73;;;11.00;;
36597;SDS011;22607;49.550;11.940;2024-02-28T01:02:53;19.50;;;10.43;;
36597;SDS011;22607;49.550;11.940;2024-02-28T01:05:20;19.02;;;10.02;;
36597;SDS011;22607;49.550;11.940;2024-02-28T01:07:48;20.42;;;10.90;;
36597;SDS011;22607;49.550;11.940;2024-02-28T01:10:15;20.27;;;9.80;;
36597;SDS011;22607;49.550;11.940;2024-02-28T01:12:42;15.18;;;7.90;;
36597;SDS011;22607;49.550;11.940;2024-02-28T01:15:11;19.92;;;11.18;;
36597;SDS011;22607;49.550;11.940;2024-02-28T01:17:39;15.35;;;8.05;;
36597;SDS011;22607;49.550;11.940;2024-02-28T01:20:08;18.50;;;8.93;;
36597;SDS011;22607;49.550;11.940;2024-02-28T01:22:38;17.40;;;9.70;;
36597;SDS011;22607;49.550;11.940;2024-02-28T01:25:05;18.55;;;9.43;;
36597;SDS011;22607;49.550;11.940;2024-02-28T01:27:34;19.42;;;9.57;;
36597;SDS011;22607;49.550;11.940;2024-02-28T01:30:02;15.63;;;8.32;;
36597;SDS011;22607;49.550;11.940;2024-02-28T01:32:30;17.77;;;9.65;;
36597;SDS011;22607;49.550;11.940;2024-02-28T01:34:57;18.92;;;9.90;;
36597;SDS011;22607;49.550;11.940;2024-02-28T01:37:24;16.23;;;8.60;;
36597;SDS011;22607;49.550;11.940;2024-02-28T01:39:56;18.20;;;9.55;;
36597;SDS011;22607;49.550;11.940;2024-02-28T01:42:26;18.00;;;10.50;;
36597;SDS011;22607;49.550;11.940;2024-02-28T01:44:52;15.52;;;8.65;;
36597;SDS011;22607;49.550;11.940;2024-02-28T01:47:22;19.15;;;9.80;;
36597;SDS011;22607;49.550;11.940;2024-02-28T01:49:49;17.40;;;8.57;;
36597;SDS011;22607;49.550;11.940;2024-02-28T01:52:21;18.38;;;9.82;;
36597;SDS011;22607;49.550;11.940;2024-02-28T01:54:47;18.50;;;9.05;;
36597;SDS011;22607;49.550;11.940;2024-02-28T01:57:15;19.55;;;10.68;;
36597;SDS011;22607;49.550;11.940;2024-02-28T01:59:43;18.42;;;9.68;;
36597;SDS011;22607;49.550;11.940;2024-02-28T02:02:11;19.15;;;9.32;;
36597;SDS011;22607;49.550;11.940;2024-02-28T02:04:38;16.98;;;8.75;;
36597;SDS011;22607;49.550;11.940;2024-02-28T02:07:08;20.25;;;10.35;;
36597;SDS011;22607;49.550;11.940;2024-02-28T02:09:34;17.65;;;8.70;;
36597;SDS011;22607;49.550;11.940;2024-02-28T02:12:02;19.80;;;9.15;;
36597;SDS011;22607;49.550;11.940;2024-02-28T02:14:30;19.75;;;10.40;;
36597;SDS011;22607;49.550;11.940;2024-02-28T02:16:57;17.73;;;9.43;;
36597;SDS011;22607;49.550;11.940;2024-02-28T02:19:24;17.15;;;9.00;;
36597;SDS011;22607;49.550;11.940;2024-02-28T02:21:52;21.50;;;10.93;;
36597;SDS011;22607;49.550;11.940;2024-02-28T02:24:26;17.90;;;9.35;;
36597;SDS011;22607;49.550;11.940;2024-02-28T02:26:57;17.23;;;9.77;;
36597;SDS011;22607;49.550;11.940;2024-02-28T02:29:25;14.38;;;7.90;;
36597;SDS011;22607;49.550;11.940;2024-02-28T02:31:54;20.20;;;10.43;;
36597;SDS011;22607;49.550;11.940;2024-02-28T02:34:24;16.77;;;8.45;;
36597;SDS011;22607;49.550;11.940;2024-02-28T02:36:51;16.92;;;9.18;;
36597;SDS011;22607;49.550;11.940;2024-02-28T02:39:18;16.48;;;9.05;;
36597;SDS011;22607;49.550;11.940;2024-02-28T02:41:48;17.25;;;8.88;;
36597;SDS011;22607;49.550;11.940;2024-02-28T02:44:17;16.92;;;9.05;;
36597;SDS011;22607;49.550;11.940;2024-02-28T02:46:44;17.33;;;8.98;;
36597;SDS011;22607;49.550;11.940;2024-02-28T02:49:11;15.82;;;7.85;;
36597;SDS011;22607;49.550;11.940;2024-02-28T02:51:40;17.33;;;9.15;;
36597;SDS011;22607;49.550;11.940;2024-02-28T02:54:09;16.90;;;8.13;;
36597;SDS011;22607;49.550;11.940;2024-02-28T02:56:40;18.08;;;9.40;;
36597;SDS011;22607;49.550;11.940;2024-02-28T02:59:09;13.57;;;7.22;;
36597;SDS011;22607;49.550;11.940;2024-02-28T03:01:37;18.63;;;9.82;;
36597;SDS011;22607;49.550;11.940;2024-02-28T03:04:04;13.68;;;7.20;;
36597;SDS011;22607;49.550;11.940;2024-02-28T03:06:31;16.88;;;8.90;;
36597;SDS011;22607;49.550;11.940;2024-02-28T03:08:59;16.30;;;7.63;;
36597;SDS011;22607;49.550;11.940;2024-02-28T03:11:26;16.15;;;8.10;;
36597;SDS011;22607;49.550;11.940;2024-02-28T03:13:52;16.98;;;8.63;;
36597;SDS011;22607;49.550;11.940;2024-02-28T03:16:20;16.15;;;7.78;;
36597;SDS011;22607;49.550;11.940;2024-02-28T03:18:47;15.65;;;8.35;;
36597;SDS011;22607;49.550;11.940;2024-02-28T03:21:14;14.77;;;7.25;;
36597;SDS011;22607;49.550;11.940;2024-02-28T03:23:43;17.00;;;8.00;;
36597;SDS011;22607;49.550;11.940;2024-02-28T03:26:12;12.60;;;6.90;;
36597;SDS011;22607;49.550;11.940;2024-02-28T03:28:39;18.20;;;8.57;;
36597;SDS011;22607;49.550;11.940;2024-02-28T03:31:05;18.90;;;9.57;;
36597;SDS011;22607;49.550;11.940;2024-02-28T03:33:33;13.55;;;6.88;;
36597;SDS011;22607;49.550;11.940;2024-02-28T03:36:04;18.50;;;7.55;;
36597;SDS011;22607;49.550;11.940;2024-02-28T03:38:31;16.00;;;8.02;;
36597;SDS011;22607;49.550;11.940;2024-02-28T03:40:58;15.75;;;7.93;;
36597;SDS011;22607;49.550;11.940;2024-02-28T03:43:25;16.50;;;7.75;;
36597;SDS011;22607;49.550;11.940;2024-02-28T03:45:54;16.83;;;7.55;;
36597;SDS011;22607;49.550;11.940;2024-02-28T03:48:25;13.45;;;6.68;;
36597;SDS011;22607;49.550;11.940;2024-02-28T03:50:52;16.05;;;7.55;;
36597;SDS011;22607;49.550;11.940;2024-02-28T03:53:19;11.43;;;6.10;;
36597;SDS011;22607;49.550;11.940;2024-02-28T03:55:46;15.85;;;8.00;;
36597;SDS011;22607;49.550;11.940;2024-02-28T03:58:13;13.15;;;6.53;;
36597;SDS011;22607;49.550;11.940;2024-02-28T04:00:42;14.18;;;6.78;;
36597;SDS011;22607;49.550;11.940;2024-02-28T04:03:11;14.75;;;7.45;;
36597;SDS011;22607;49.550;11.940;2024-02-28T04:05:42;13.45;;;6.30;;
36597;SDS011;22607;49.550;11.940;2024-02-28T04:08:09;13.50;;;6.53;;
36597;SDS011;22607;49.550;11.940;2024-02-28T04:10:37;14.88;;;7.10;;
36597;SDS011;22607;49.550;11.940;2024-02-28T04:13:04;12.60;;;5.68;;
36597;SDS011;22607;49.550;11.940;2024-02-28T04:15:32;15.27;;;7.28;;
36597;SDS011;22607;49.550;11.940;2024-02-28T04:17:59;13.52;;;6.50;;
36597;SDS011;22607;49.550;11.940;2024-02-28T04:20:26;14.75;;;6.80;;
36597;SDS011;22607;49.550;11.940;2024-02-28T04:22:54;13.85;;;6.78;;
36597;SDS011;22607;49.550;11.940;2024-02-28T04:25:20;15.70;;;7.25;;
36597;SDS011;22607;49.550;11.940;2024-02-28T04:27:48;15.05;;;7.22;;
36597;SDS011;22607;49.550;11.940;2024-02-28T04:30:17;13.63;;;6.32;;
36597;SDS011;22607;49.550;11.940;2024-02-28T04:32:46;14.57;;;6.45;;
36597;SDS011;22607;49.550;11.940;2024-02-28T04:35:13;15.35;;;6.95;;
36597;SDS011;22607;49.550;11.940;2024-02-28T04:37:43;16.17;;;7.50;;
36597;SDS011;22607;49.550;11.940;2024-02-28T04:40:11;14.63;;;6.38;;
36597;SDS011;22607;49.550;11.940;2024-02-28T04:42:39;14.35;;;6.70;;
36597;SDS011;22607;49.550;11.940;2024-02-28T04:45:07;14.88;;;6.70;;
36597;SDS011;22607;49.550;11.940;2024-02-28T04:47:34;13.82;;;6.15;;
36597;SDS011;22607;49.550;11.940;2024-02-28T04:50:10;15.55;;;7.22;;
36597;SDS011;22607;49.550;11.940;2024-02-28T04:52:43;15.57;;;6.93;;
36597;SDS011;22607;49.550;11.940;2024-02-28T04:55:11;13.10;;;6.22;;
36597;SDS011;22607;49.550;11.940;2024-02-28T04:57:39;13.95;;;5.97;;
36597;SDS011;22607;49.550;11.940;2024-02-28T05:00:07;11.90;;;5.80;;
36597;SDS011;22607;49.550;11.940;2024-02-28T05:02:37;14.95;;;6.72;;
36597;SDS011;22607;49.550;11.940;2024-02-28T05:05:04;13.30;;;6.25;;
36597;SDS011;22607;49.550;11.940;2024-02-28T05:07:32;15.65;;;7.47;;
36597;SDS011;22607;49.550;11.940;2024-02-28T05:09:59;14.73;;;7.10;;
36597;SDS011;22607;49.550;11.940;2024-02-28T05:12:32;13.30;;;6.40;;
36597;SDS011;22607;49.550;11.940;2024-02-28T05:15:06;14.57;;;6.32;;
36597;SDS011;22607;49.550;11.940;2024-02-28T05:17:34;14.93;;;6.55;;
36597;SDS011;22607;49.550;11.940;2024-02-28T05:20:02;13.82;;;6.25;;
36597;SDS011;22607;49.550;11.940;2024-02-28T05:22:30;14.85;;;6.65;;
36597;SDS011;22607;49.550;11.940;2024-02-28T05:25:03;15.82;;;7.70;;
36597;SDS011;22607;49.550;11.940;2024-02-28T05:27:32;16.40;;;7.50;;
36597;SDS011;22607;49.550;11.940;2024-02-28T05:30:01;15.60;;;7.45;;
36597;SDS011;22607;49.550;11.940;2024-02-28T05:32:28;17.40;;;7.38;;
36597;SDS011;22607;49.550;11.940;2024-02-28T05:34:57;15.48;;;6.85;;
36597;SDS011;22607;49.550;11.940;2024-02-28T05:37:24;19.23;;;11.65;;
36597;SDS011;22607;49.550;11.940;2024-02-28T05:39:53;14.38;;;7.00;;
36597;SDS011;22607;49.550;11.940;2024-02-28T05:42:20;15.27;;;6.85;;
36597;SDS011;22607;49.550;11.940;2024-02-28T05:44:50;14.85;;;7.57;;
36597;SDS011;22607;49.550;11.940;2024-02-28T05:47:17;13.30;;;6.90;;
36597;SDS011;22607;49.550;11.940;2024-02-28T05:49:51;16.25;;;6.88;;
36597;SDS011;22607;49.550;11.940;2024-02-28T05:52:18;15.70;;;7.90;;
36597;SDS011;22607;49.550;11.940;2024-02-28T05:54:45;15.02;;;7.20;;
36597;SDS011;22607;49.550;11.940;2024-02-28T05:57:13;16.35;;;6.68;;
36597;SDS011;22607;49.550;11.940;2024-02-28T05:59:43;14.15;;;6.35;;
36597;SDS011;22607;49.550;11.940;2024-02-28T06:02:10;16.52;;;6.97;;
36597;SDS011;22607;49.550;11.940;2024-02-28T06:04:38;17.02;;;7.30;;
36597;SDS011;22607;49.550;11.940;2024-02-28T06:07:06;14.38;;;6.40;;
36597;SDS011;22607;49.550;11.940;2024-02-28T06:09:33;14.45;;;6.53;;
36597;SDS011;22607;49.550;11.940;2024-02-28T06:12:03;15.88;;;7.28;;
36597;SDS011;22607;49.550;11.940;2024-02-28T06:14:30;17.50;;;7.15;;
36597;SDS011;22607;49.550;11.940;2024-02-28T06:16:58;15.57;;;7.53;;
36597;SDS011;22607;49.550;11.940;2024-02-28T06:19:25;16.23;;;7.28;;
36597;SDS011;22607;49.550;11.940;2024-02-28T06:21:52;14.98;;;6.55;;
36597;SDS011;22607;49.550;11.940;2024-02-28T06:24:20;14.55;;;7.13;;
36597;SDS011;22607;49.550;11.940;2024-02-28T06:26:47;13.57;;;6.38;;
36597;SDS011;22607;49.550;11.940;2024-02-28T06:29:15;14.55;;;7.30;;
36597;SDS011;22607;49.550;11.940;2024-02-28T06:31:44;14.43;;;6.65;;
36597;SDS011;22607;49.550;11.940;2024-02-28T06:34:11;14.38;;;6.85;;
36597;SDS011;22607;49.550;11.940;2024-02-28T06:36:40;14.18;;;6.38;;
36597;SDS011;22607;49.550;11.940;2024-02-28T06:39:07;14.70;;;6.70;;
36597;SDS011;22607;49.550;11.940;2024-02-28T06:41:34;15.27;;;6.30;;
36597;SDS011;22607;49.550;11.940;2024-02-28T06:44:04;13.88;;;6.90;;
36597;SDS011;22607;49.550;11.940;2024-02-28T06:46:32;15.10;;;7.20;;
36597;SDS011;22607;49.550;11.940;2024-02-28T06:48:59;15.48;;;6.90;;
36597;SDS011;22607;49.550;11.940;2024-02-28T06:53:57;15.45;;;6.93;;
36597;SDS011;22607;49.550;11.940;2024-02-28T06:56:26;14.02;;;6.53;;
36597;SDS011;22607;49.550;11.940;2024-02-28T06:58:54;13.68;;;5.90;;
36597;SDS011;22607;49.550;11.940;2024-02-28T07:01:21;14.68;;;6.63;;
36597;SDS011;22607;49.550;11.940;2024-02-28T07:03:49;15.07;;;6.43;;
36597;SDS011;22607;49.550;11.940;2024-02-28T07:06:20;13.55;;;6.05;;
36597;SDS011;22607;49.550;11.940;2024-02-28T07:08:47;13.25;;;6.72;;
36597;SDS011;22607;49.550;11.940;2024-02-28T07:11:18;13.23;;;6.13;;
36597;SDS011;22607;49.550;11.940;2024-02-28T07:13:48;14.73;;;6.55;;
36597;SDS011;22607;49.550;11.940;2024-02-28T07:16:17;15.20;;;6.70;;
36597;SDS011;22607;49.550;11.940;2024-02-28T07:18:43;13.98;;;6.47;;
36597;SDS011;22607;49.550;11.940;2024-02-28T07:21:11;12.75;;;6.03;;
36597;SDS011;22607;49.550;11.940;2024-02-28T07:23:40;13.95;;;5.75;;
36597;SDS011;22607;49.550;11.940;2024-02-28T07:26:07;13.85;;;6.30;;
36597;SDS011;22607;49.550;11.940;2024-02-28T07:28:48;13.35;;;6.72;;
36597;SDS011;22607;49.550;11.940;2024-02-28T07:31:18;11.93;;;6.00;;
36597;SDS011;22607;49.550;11.940;2024-02-28T07:33:49;13.13;;;6.55;;
36597;SDS011;22607;49.550;11.940;2024-02-28T07:36:42;14.65;;;7.55;;
36597;SDS011;22607;49.550;11.940;2024-02-28T07:39:09;13.68;;;6.00;;
36597;SDS011;22607;49.550;11.940;2024-02-28T07:41:42;14.68;;;7.18;;
36597;SDS011;22607;49.550;11.940;2024-02-28T07:44:14;12.55;;;6.18;;
36597;SDS011;22607;49.550;11.940;2024-02-28T07:46:41;11.32;;;5.70;;
36597;SDS011;22607;49.550;11.940;2024-02-28T07:49:12;13.07;;;6.53;;
36597;SDS011;22607;49.550;11.940;2024-02-28T07:51:40;14.35;;;6.65;;
36597;SDS011;22607;49.550;11.940;2024-02-28T07:54:08;14.93;;;7.60;;
36597;SDS011;22607;49.550;11.940;2024-02-28T07:56:35;13.85;;;6.40;;
36597;SDS011;22607;49.550;11.940;2024-02-28T07:59:02;15.70;;;7.78;;
36597;SDS011;22607;49.550;11.940;2024-02-28T08:01:29;13.40;;;6.38;;
36597;SDS011;22607;49.550;11.940;2024-02-28T08:04:00;14.10;;;6.60;;
36597;SDS011;22607;49.550;11.940;2024-02-28T08:06:29;13.73;;;6.60;;
36597;SDS011;22607;49.550;11.940;2024-02-28T08:08:59;13.63;;;6.53;;
36597;SDS011;22607;49.550;11.940;2024-02-28T08:11:27;14.35;;;6.22;;
36597;SDS011;22607;49.550;11.940;2024-02-28T08:13:54;12.98;;;6.25;;
36597;SDS011;22607;49.550;11.940;2024-02-28T08:16:25;12.63;;;5.93;;
36597;SDS011;22607;49.550;11.940;2024-02-28T08:18:55;10.50;;;4.40;;
36597;SDS011;22607;49.550;11.940;2024-02-28T08:21:22;12.40;;;5.60;;
36597;SDS011;22607;49.550;11.940;2024-02-28T08:23:51;14.05;;;6.72;;
36597;SDS011;22607;49.550;11.940;2024-02-28T08:26:22;14.00;;;6.72;;
36597;SDS011;22607;49.550;11.940;2024-02-28T08:28:51;15.02;;;6.47;;
36597;SDS011;22607;49.550;11.940;2024-02-28T08:31:18;13.75;;;6.38;;
36597;SDS011;22607;49.550;11.940;2024-02-28T08:33:50;14.27;;;6.80;;
36597;SDS011;22607;49.550;11.940;2024-02-28T08:36:21;12.80;;;6.00;;
36597;SDS011;22607;49.550;11.940;2024-02-28T08:38:49;13.93;;;5.82;;
36597;SDS011;22607;49.550;11.940;2024-02-28T08:41:17;12.73;;;6.00;;
36597;SDS011;22607;49.550;11.940;2024-02-28T08:43:44;11.75;;;4.82;;
36597;SDS011;22607;49.550;11.940;2024-02-28T08:46:14;14.68;;;6.93;;
36597;SDS011;22607;49.550;11.940;2024-02-28T08:48:46;14.60;;;6.25;;
36597;SDS011;22607;49.550;11.940;2024-02-28T08:51:14;11.10;;;5.05;;
36597;SDS011;22607;49.550;11.940;2024-02-28T08:53:42;16.83;;;7.30;;
36597;SDS011;22607;49.550;11.940;2024-02-28T08:56:09;12.57;;;5.35;;
36597;SDS011;22607;49.550;11.940;2024-02-28T08:58:37;14.18;;;6.80;;
36597;SDS011;22607;49.550;11.940;2024-02-28T09:01:04;13.23;;;5.90;;
36597;SDS011;22607;49.550;11.940;2024-02-28T09:03:34;14.80;;;7.03;;
36597;SDS011;22607;49.550;11.940;2024-02-28T09:06:01;14.50;;;6.75;;
36597;SDS011;22607;49.550;11.940;2024-02-28T09:08:28;14.82;;;6.38;;
36597;SDS011;22607;49.550;11.940;2024-02-28T09:10:56;14.18;;;6.63;;
36597;SDS011;22607;49.550;11.940;2024-02-28T09:13:25;12.63;;;6.38;;
36597;SDS011;22607;49.550;11.940;2024-02-28T09:15:52;14.77;;;6.55;;
36597;SDS011;22607;49.550;11.940;2024-02-28T09:18:22;14.77;;;6.95;;
36597;SDS011;22607;49.550;11.940;2024-02-28T09:20:52;12.30;;;5.68;;
36597;SDS011;22607;49.550;11.940;2024-02-28T09:23:24;14.85;;;6.90;;
36597;SDS011;22607;49.550;11.940;2024-02-28T09:25:50;14.25;;;6.93;;
36597;SDS011;22607;49.550;11.940;2024-02-28T09:28:17;13.82;;;6.60;;
36597;SDS011;22607;49.550;11.940;2024-02-28T09:30:45;14.80;;;7.13;;
36597;SDS011;22607;49.550;11.940;2024-02-28T09:33:19;10.88;;;5.18;;
36597;SDS011;22607;49.550;11.940;2024-02-28T09:35:48;14.15;;;6.88;;
36597;SDS011;22607;49.550;11.940;2024-02-28T09:38:19;14.88;;;7.60;;
36597;SDS011;22607;49.550;11.940;2024-02-28T09:40:48;11.18;;;5.68;;
36597;SDS011;22607;49.550;11.940;2024-02-28T09:43:19;13.70;;;6.57;;
36597;SDS011;22607;49.550;11.940;2024-02-28T09:46:05;13.40;;;6.13;;
36597;SDS011;22607;49.550;11.940;2024-02-28T09:48:40;14.27;;;6.82;;
36597;SDS011;22607;49.550;11.940;2024-02-28T09:51:12;12.45;;;5.90;;
36597;SDS011;22607;49.550;11.940;2024-02-28T09:53:41;14.40;;;7.28;;
36597;SDS011;22607;49.550;11.940;2024-02-28T09:56:10;12.32;;;6.15;;
36597;SDS011;22607;49.550;11.940;2024-02-28T09:58:40;13.15;;;6.93;;
36597;SDS011;22607;49.550;11.940;2024-02-28T10:01:11;10.85;;;5.45;;
36597;SDS011;22607;49.550;11.940;2024-02-28T10:03:41;13.18;;;6.57;;
36597;SDS011;22607;49.550;11.940;2024-02-28T10:06:11;11.38;;;5.57;;
36597;SDS011;22607;49.550;11.940;2024-02-28T10:08:40;13.93;;;5.75;;
36597;SDS011;22607;49.550;11.940;2024-02-28T10:11:07;10.38;;;4.50;;
36597;SDS011;22607;49.550;11.940;2024-02-28T10:13:35;11.93;;;6.03;;
36597;SDS011;22607;49.550;11.940;2024-02-28T10:16:02;10.32;;;5.40;;
36597;SDS011;22607;49.550;11.940;2024-02-28T10:18:37;11.73;;;5.55;;
36597;SDS011;22607;49.550;11.940;2024-02-28T10:21:07;10.88;;;5.18;;
36597;SDS011;22607;49.550;11.940;2024-02-28T10:23:37;10.10;;;5.00;;
36597;SDS011;22607;49.550;11.940;2024-02-28T10:26:04;11.00;;;4.85;;
36597;SDS011;22607;49.550;11.940;2024-02-28T10:28:31;11.00;;;4.75;;
36597;SDS011;22607;49.550;11.940;2024-02-28T10:31:02;9.90;;;5.07;;
36597;SDS011;22607;49.550;11.940;2024-02-28T10:33:32;10.63;;;5.22;;
36597;SDS011;22607;49.550;11.940;2024-02-28T10:36:08;13.48;;;6.75;;
36597;SDS011;22607;49.550;11.940;2024-02-28T10:38:35;11.75;;;5.45;;
36597;SDS011;22607;49.550;11.940;2024-02-28T10:41:07;10.75;;;4.70;;
36597;SDS011;22607;49.550;11.940;2024-02-28T10:43:41;11.20;;;5.55;;
36597;SDS011;22607;49.550;11.940;2024-02-28T10:49:04;11.45;;;5.10;;
36597;SDS011;22607;49.550;11.940;2024-02-28T10:51:37;10.50;;;4.80;;
36597;SDS011;22607;49.550;11.940;2024-02-28T10:54:12;10.27;;;4.70;;
36597;SDS011;22607;49.550;11.940;2024-02-28T10:56:42;10.65;;;5.00;;
36597;SDS011;22607;49.550;11.940;2024-02-28T10:59:10;11.75;;;5.43;;
36597;SDS011;22607;49.550;11.940;2024-02-28T11:01:40;12.77;;;6.13;;
36597;SDS011;22607;49.550;11.940;2024-02-28T11:04:15;11.27;;;5.70;;
36597;SDS011;22607;49.550;11.940;2024-02-28T11:06:50;11.35;;;5.57;;
36597;SDS011;22607;49.550;11.940;2024-02-28T11:09:19;11.38;;;5.43;;
36597;SDS011;22607;49.550;11.940;2024-02-28T11:11:51;10.50;;;4.60;;
36597;SDS011;22607;49.550;11.940;2024-02-28T11:14:21;10.15;;;4.82;;
36597;SDS011;22607;49.550;11.940;2024-02-28T11:17:01;9.63;;;4.28;;
36597;SDS011;22607;49.550;11.940;2024-02-28T11:19:31;10.98;;;5.20;;
36597;SDS011;22607;49.550;11.940;2024-02-28T11:22:05;9.57;;;4.18;;
36597;SDS011;22607;49.550;11.940;2024-02-28T11:24:33;11.07;;;4.40;;
36597;SDS011;22607;49.550;11.940;2024-02-28T11:27:04;9.93;;;4.10;;
36597;SDS011;22607;49.550;11.940;2024-02-28T11:29:33;9.85;;;4.70;;
36597;SDS011;22607;49.550;11.940;2024-02-28T11:32:00;11.95;;;4.80;;
36597;SDS011;22607;49.550;11.940;2024-02-28T11:36:59;9.45;;;4.55;;
36597;SDS011;22607;49.550;11.940;2024-02-28T11:39:27;9.95;;;4.43;;
36597;SDS011;22607;49.550;11.940;2024-02-28T11:41:54;10.05;;;4.00;;
36597;SDS011;22607;49.550;11.940;2024-02-28T11:44:23;9.60;;;4.22;;
36597;SDS011;22607;49.550;11.940;2024-02-28T11:46:50;9.32;;;3.92;;
36597;SDS011;22607;49.550;11.940;2024-02-28T11:49:18;9.80;;;4.43;;
36597;SDS011;22607;49.550;11.940;2024-02-28T11:51:46;10.48;;;4.10;;
36597;SDS011;22607;49.550;11.940;2024-02-28T11:54:15;10.38;;;4.80;;
36597;SDS011;22607;49.550;11.940;2024-02-28T11:56:42;9.55;;;4.25;;
36597;SDS011;22607;49.550;11.940;2024-02-28T11:59:13;10.00;;;5.13;;
36597;SDS011;22607;49.550;11.940;2024-02-28T12:01:41;10.88;;;5.03;;
36597;SDS011;22607;49.550;11.940;2024-02-28T12:04:11;9.55;;;4.25;;
36597;SDS011;22607;49.550;11.940;2024-02-28T12:06:39;10.23;;;4.95;;
36597;SDS011;22607;49.550;11.940;2024-02-28T12:09:07;9.13;;;4.15;;
36597;SDS011;22607;49.550;11.940;2024-02-28T12:11:44;9.93;;;4.00;;
36597;SDS011;22607;49.550;11.940;2024-02-28T12:14:12;9.57;;;4.22;;
36597;SDS011;22607;49.550;11.940;2024-02-28T12:16:40;10.20;;;4.82;;
36597;SDS011;22607;49.550;11.940;2024-02-28T12:19:14;10.63;;;5.05;;
36597;SDS011;22607;49.550;11.940;2024-02-28T12:21:42;9.38;;;4.65;;
36597;SDS011;22607;49.550;11.940;2024-02-28T12:24:11;11.25;;;4.53;;
36597;SDS011;22607;49.550;11.940;2024-02-28T12:26:38;9.30;;;4.25;;
36597;SDS011;22607;49.550;11.940;2024-02-28T12:29:07;9.63;;;4.95;;
36597;SDS011;22607;49.550;11.940;2024-02-28T12:31:37;10.57;;;4.93;;
36597;SDS011;22607;49.550;11.940;2024-02-28T12:34:05;10.27;;;4.97;;
36597;SDS011;22607;49.550;11.940;2024-02-28T12:36:41;9.02;;;4.00;;
36597;SDS011;22607;49.550;11.940;2024-02-28T12:39:11;10.48;;;4.35;;
36597;SDS011;22607;49.550;11.940;2024-02-28T12:41:38;10.43;;;4.57;;
36597;SDS011;22607;49.550;11.940;2024-02-28T12:44:06;10.30;;;4.65;;
36597;SDS011;22607;49.550;11.940;2024-02-28T12:46:34;9.43;;;4.50;;
36597;SDS011;22607;49.550;11.940;2024-02-28T12:49:02;11.38;;;5.60;;
36597;SDS011;22607;49.550;11.940;2024-02-28T12:51:37;10.65;;;5.38;;
36597;SDS011;22607;49.550;11.940;2024-02-28T12:54:15;9.95;;;4.35;;
36597;SDS011;22607;49.550;11.940;2024-02-28T12:56:42;9.50;;;4.25;;
36597;SDS011;22607;49.550;11.940;2024-02-28T12:59:10;10.95;;;5.07;;
36597;SDS011;22607;49.550;11.940;2024-02-28T13:01:37;10.43;;;4.50;;
36597;SDS011;22607;49.550;11.940;2024-02-28T13:04:06;9.57;;;4.35;;
36597;SDS011;22607;49.550;11.940;2024-02-28T13:06:33;11.85;;;5.57;;
36597;SDS011;22607;49.550;11.940;2024-02-28T13:09:03;10.57;;;5.28;;
36597;SDS011;22607;49.550;11.940;2024-02-28T13:11:35;10.02;;;4.90;;
36597;SDS011;22607;49.550;11.940;2024-02-28T13:14:04;10.98;;;5.55;;
36597;SDS011;22607;49.550;11.940;2024-02-28T13:16:31;11.52;;;5.00;;
36597;SDS011;22607;49.550;11.940;2024-02-28T13:18:58;10.77;;;4.80;;
36597;SDS011;22607;49.550;11.940;2024-02-28T13:21:25;11.23;;;4.57;;
36597;SDS011;22607;49.550;11.940;2024-02-28T13:23:54;12.82;;;5.70;;
36597;SDS011;22607;49.550;11.940;2024-02-28T13:26:21;11.80;;;6.20;;
36597;SDS011;22607;49.550;11.940;2024-02-28T13:28:50;12.68;;;6.63;;
36597;SDS011;22607;49.550;11.940;2024-02-28T13:31:25;12.48;;;5.32;;
36597;SDS011;22607;49.550;11.940;2024-02-28T13:33:53;11.15;;;5.43;;
36597;SDS011;22607;49.550;11.940;2024-02-28T13:36:24;12.43;;;5.63;;
36597;SDS011;22607;49.550;11.940;2024-02-28T13:38:53;11.48;;;5.63;;
36597;SDS011;22607;49.550;11.940;2024-02-28T13:41:24;10.93;;;5.10;;
36597;SDS011;22607;49.550;11.940;2024-02-28T13:43:52;12.35;;;6.00;;
36597;SDS011;22607;49.550;11.940;2024-02-28T13:46:19;12.45;;;5.72;;
36597;SDS011;22607;49.550;11.940;2024-02-28T13:48:49;12.02;;;5.90;;
36597;SDS011;22607;49.550;11.940;2024-02-28T13:51:17;13.70;;;6.30;;
36597;SDS011;22607;49.550;11.940;2024-02-28T13:53:44;12.77;;;5.80;;
36597;SDS011;22607;49.550;11.940;2024-02-28T13:56:11;13.98;;;6.68;;
36597;SDS011;22607;49.550;11.940;2024-02-28T13:58:39;10.95;;;5.25;;
36597;SDS011;22607;49.550;11.940;2024-02-28T14:01:18;12.07;;;6.07;;
36597;SDS011;22607;49.550;11.940;2024-02-28T14:03:48;12.43;;;5.88;;
36597;SDS011;22607;49.550;11.940;2024-02-28T14:06:15;11.63;;;5.60;;
36597;SDS011;22607;49.550;11.940;2024-02-28T14:08:48;11.57;;;5.28;;
36597;SDS011;22607;49.550;11.940;2024-02-28T14:11:15;13.30;;;5.63;;
36597;SDS011;22607;49.550;11.940;2024-02-28T14:13:48;10.93;;;5.40;;
36597;SDS011;22607;49.550;11.940;2024-02-28T14:16:15;11.02;;;5.68;;
36597;SDS011;22607;49.550;11.940;2024-02-28T14:18:42;11.20;;;5.50;;
36597;SDS011;22607;49.550;11.940;2024-02-28T14:21:17;12.63;;;6.38;;
36597;SDS011;22607;49.550;11.940;2024-02-28T14:23:46;11.30;;;4.97;;
36597;SDS011;22607;49.550;11.940;2024-02-28T14:26:14;11.50;;;5.20;;
36597;SDS011;22607;49.550;11.940;2024-02-28T14:28:44;11.38;;;5.25;;
36597;SDS011;22607;49.550;11.940;2024-02-28T14:31:11;11.70;;;5.60;;
36597;SDS011;22607;49.550;11.940;2024-02-28T14:33:38;12.10;;;6.15;;
36597;SDS011;22607;49.550;11.940;2024-02-28T14:36:05;11.70;;;5.43;;
36597;SDS011;22607;49.550;11.940;2024-02-28T14:38:34;12.05;;;5.57;;